Time;durP1;ratioP1;P1;durP2;ratioP2;P2;SDS_P1;SDS_P2;PMS_P1;PMS_P2;Temp;Humidity;BMP_temperature;BMP_pressure;BME280_temperature;BME280_humidity;BME280_pressure;Samples;Min_cycle;Max_cycle;Signal;HPM_P1;HPM_P2
2023/06/11 00:00:02;;;;;;;8.05;3.00;;;;;;;9.84;43.36;100950.34;5053661;28;20091;-64
2023/06/11 00:02:33;;;;;;;5.32;2.55;;;;;;;9.98;42.52;100962.91;5054482;28;20302;-64
2023/06/11 00:05:03;;;;;;;4.35;2.53;;;;;;;10.23;42.30;100974.78;5053685;28;20039;-63
2023/06/11 00:07:30;;;;;;;5.43;3.08;;;;;;;10.29;42.44;100974.41;5053691;28;20079;-64
2023/06/11 00:09:56;;;;;;;3.28;2.40;;;;;;;10.22;42.65;100983.78;5053089;28;20092;-64
2023/06/11 00:12:22;;;;;;;3.72;2.58;;;;;;;10.28;42.36;100975.38;5053662;28;20037;-64
2023/06/11 00:14:47;;;;;;;3.85;2.47;;;;;;;10.45;41.89;100964.53;5052936;28;20047;-64
2023/06/11 00:17:13;;;;;;;7.40;2.63;;;;;;;10.32;42.67;100976.91;5053724;28;20029;-63
2023/06/11 00:19:40;;;;;;;6.53;2.45;;;;;;;10.26;42.30;100963.91;5053443;28;20033;-63
2023/06/11 00:22:08;;;;;;;7.20;2.72;;;;;;;10.09;43.15;100973.81;5053367;28;20060;-65
2023/06/11 00:24:34;;;;;;;7.00;3.10;;;;;;;9.97;43.50;100986.09;5053684;28;20021;-64
2023/06/11 00:27:01;;;;;;;3.90;2.70;;;;;;;9.96;43.67;100975.50;5053191;28;20079;-63
2023/06/11 00:29:27;;;;;;;3.90;2.80;;;;;;;9.86;43.96;100981.38;5052812;28;20376;-63
2023/06/11 00:31:54;;;;;;;6.05;2.60;;;;;;;10.19;43.32;100990.16;5053111;28;20036;-64
2023/06/11 00:34:19;;;;;;;3.65;2.55;;;;;;;10.11;43.08;100974.56;5052594;28;20025;-63
2023/06/11 00:36:45;;;;;;;5.50;2.90;;;;;;;10.19;43.38;100991.03;5053316;28;20415;-63
2023/06/11 00:39:11;;;;;;;3.58;2.53;;;;;;;10.12;43.67;100984.31;5053038;28;20036;-64
2023/06/11 00:41:37;;;;;;;6.82;2.50;;;;;;;10.07;43.81;100989.09;5053312;28;20025;-63
2023/06/11 00:44:03;;;;;;;4.40;3.05;;;;;;;9.94;44.23;100997.00;5053309;28;20029;-64
2023/06/11 00:46:31;;;;;;;6.22;2.80;;;;;;;9.93;44.28;100997.09;5053047;28;20031;-63
2023/06/11 00:48:58;;;;;;;4.43;2.63;;;;;;;10.06;43.77;100990.03;5052462;28;20567;-64
2023/06/11 00:51:25;;;;;;;4.78;2.70;;;;;;;10.28;43.63;101000.34;5051946;28;20487;-63
2023/06/11 00:53:52;;;;;;;5.97;2.40;;;;;;;10.02;43.99;100993.88;5052482;28;20737;-63
2023/06/11 00:56:19;;;;;;;5.60;2.70;;;;;;;9.96;44.37;101005.78;5052944;28;20124;-63
2023/06/11 00:58:46;;;;;;;7.10;2.85;;;;;;;9.96;44.40;101004.94;5052666;28;20394;-63
2023/06/11 01:01:17;;;;;;;6.53;2.47;;;;;;;10.15;43.96;101005.56;5052774;28;20048;-63
2023/06/11 01:03:43;;;;;;;5.40;2.80;;;;;;;10.04;44.75;100994.63;5052456;28;20314;-64
2023/06/11 01:06:17;;;;;;;5.28;2.70;;;;;;;9.99;44.59;101013.63;5053087;28;20508;-63
2023/06/11 01:08:45;;;;;;;4.30;2.78;;;;;;;10.07;44.77;101007.81;5052473;28;20530;-63
2023/06/11 01:11:23;;;;;;;5.20;3.00;;;;;;;10.05;44.54;101007.94;5052522;28;20045;-65
2023/06/11 01:13:49;;;;;;;4.85;3.00;;;;;;;9.91;45.02;101019.44;5052295;28;20437;-63
2023/06/11 01:16:26;;;;;;;2.72;2.25;;;;;;;10.17;44.13;101017.03;5035082;28;20025;-63
2023/06/11 01:19:04;;;;;;;5.47;2.90;;;;;;;10.01;44.69;100989.47;5052547;28;20040;-63
2023/06/11 01:21:39;;;;;;;6.30;2.90;;;;;;;9.99;45.42;101020.81;5052594;28;20886;-64
2023/06/11 01:24:06;;;;;;;4.93;2.90;;;;;;;10.03;44.98;101017.88;5052796;28;20025;-64
2023/06/11 01:26:37;;;;;;;6.05;3.10;;;;;;;10.27;44.51;101012.00;5052379;28;20124;-63
2023/06/11 01:29:08;;;;;;;7.43;2.63;;;;;;;10.06;45.37;101022.16;5051595;28;20040;-63
2023/06/11 01:31:37;;;;;;;7.18;2.63;;;;;;;10.15;45.04;101018.06;5052394;28;20040;-64
2023/06/11 01:34:04;;;;;;;7.15;2.80;;;;;;;10.00;45.83;101017.19;5052324;28;20117;-63
2023/06/11 01:36:34;;;;;;;4.43;2.63;;;;;;;10.08;45.16;101020.25;5052112;28;20924;-64
2023/06/11 01:39:01;;;;;;;5.40;2.70;;;;;;;10.24;44.77;101022.03;5052022;28;20095;-63
2023/06/11 01:41:27;;;;;;;7.18;2.67;;;;;;;10.15;45.33;101026.09;5052216;28;20033;-64
2023/06/11 01:43:53;;;;;;;5.68;2.63;;;;;;;10.10;45.47;101034.41;5052456;28;20021;-63
2023/06/11 01:46:18;;;;;;;5.18;2.42;;;;;;;10.24;45.04;101024.69;5052237;28;20028;-64
2023/06/11 01:48:44;;;;;;;6.93;2.50;;;;;;;10.14;45.76;101017.22;5051429;28;20108;-65
2023/06/11 01:51:14;;;;;;;3.63;2.58;;;;;;;10.14;45.30;101019.03;5052555;28;20037;-64
2023/06/11 01:53:43;;;;;;;6.07;2.60;;;;;;;10.15;45.48;101032.34;5034286;28;20345;-64
2023/06/11 01:56:09;;;;;;;8.98;2.90;;;;;;;10.14;45.92;101038.63;5052153;28;20029;-63
2023/06/11 01:58:37;;;;;;;7.18;2.97;;;;;;;10.31;45.15;101037.63;5051949;28;20037;-64
2023/06/11 02:01:03;;;;;;;6.15;2.50;;;;;;;10.17;45.51;101030.44;5051726;28;20049;-64
2023/06/11 02:03:29;;;;;;;4.18;3.03;;;;;;;10.38;44.87;101038.13;5055080;28;20040;-64
2023/06/11 02:05:55;;;;;;;4.00;2.60;;;;;;;10.10;45.24;100999.59;5056309;28;20025;-64
2023/06/11 02:08:20;;;;;;;5.93;2.70;;;;;;;10.23;45.31;101039.03;5056079;28;20095;-63
2023/06/11 02:10:47;;;;;;;5.38;2.90;;;;;;;10.51;44.62;101032.03;5055168;28;20491;-63
2023/06/11 02:13:12;;;;;;;4.63;2.25;;;;;;;10.33;45.24;101045.53;5056261;28;20073;-64
2023/06/11 02:15:38;;;;;;;4.38;2.70;;;;;;;10.54;44.56;101053.25;5056340;28;20064;-65
2023/06/11 02:18:04;;;;;;;4.93;2.22;;;;;;;10.68;44.17;101045.25;5055145;28;20404;-63
2023/06/11 02:20:49;;;;;;;2.95;2.28;;;;;;;10.90;43.35;101025.19;5040305;28;20037;-64
2023/06/11 02:23:16;;;;;;;5.63;2.60;;;;;;;11.14;43.01;101049.56;5055821;28;20036;-64
2023/06/11 02:25:41;;;;;;;3.88;2.67;;;;;;;11.34;42.69;101045.63;5055713;28;20029;-64
2023/06/11 02:28:07;;;;;;;4.03;2.40;;;;;;;11.50;42.40;101047.28;5055740;28;20079;-63
2023/06/11 02:30:32;;;;;;;4.85;2.40;;;;;;;11.80;41.86;101043.53;5055189;28;20058;-63
2023/06/11 02:32:58;;;;;;;6.78;2.40;;;;;;;12.10;40.95;101047.88;5055766;28;20095;-63
2023/06/11 02:35:24;;;;;;;4.65;2.40;;;;;;;12.35;40.62;101055.09;5055794;28;20036;-63
2023/06/11 02:37:49;;;;;;;3.20;2.33;;;;;;;12.67;39.85;101059.22;5055126;28;20056;-64
2023/06/11 02:40:15;;;;;;;3.83;2.47;;;;;;;12.89;39.76;101068.47;5054842;28;20024;-65
2023/06/11 02:42:40;;;;;;;7.13;2.60;;;;;;;13.22;38.73;101075.06;5037685;28;20102;-64
2023/06/11 02:45:06;;;;;;;2.90;2.15;;;;;;;13.23;39.01;101070.56;5055470;28;20033;-64
2023/06/11 02:47:32;;;;;;;3.92;2.35;;;;;;;13.28;38.84;101069.28;5055524;28;20397;-64
2023/06/11 02:49:57;;;;;;;5.22;2.17;;;;;;;13.27;38.64;101067.56;5055384;28;20120;-64
2023/06/11 02:52:23;;;;;;;3.45;2.20;;;;;;;13.45;38.11;101070.75;5054887;28;20449;-65
2023/06/11 02:54:49;;;;;;;4.53;2.13;;;;;;;13.29;38.36;101070.13;5054978;28;20029;-63
2023/06/11 02:57:15;;;;;;;2.70;1.90;;;;;;;13.66;37.46;101066.59;5055425;28;20040;-65
2023/06/11 02:59:40;;;;;;;4.50;2.25;;;;;;;13.58;38.07;101069.84;5055217;28;20033;-64
2023/06/11 03:02:06;;;;;;;5.45;2.50;;;;;;;13.77;37.71;101074.75;5054808;28;20025;-64
2023/06/11 03:04:31;;;;;;;5.25;2.60;;;;;;;14.20;37.33;101068.81;5055154;28;20040;-63
2023/06/11 03:06:57;;;;;;;3.47;2.28;;;;;;;14.73;36.55;101072.91;5054558;28;20025;-64
2023/06/11 03:09:24;;;;;;;4.40;2.20;;;;;;;15.18;35.22;101081.97;5054155;28;20052;-64
2023/06/11 03:11:50;;;;;;;5.32;2.83;;;;;;;15.47;34.77;101087.72;5054768;28;20360;-64
2023/06/11 03:14:16;;;;;;;6.03;2.42;;;;;;;15.83;33.98;101086.69;5053448;28;20025;-64
2023/06/11 03:16:42;;;;;;;5.55;2.58;;;;;;;15.95;33.69;101084.84;5054856;28;20326;-64
2023/06/11 03:19:07;;;;;;;3.85;2.40;;;;;;;15.93;33.51;101057.94;5053733;28;20033;-63
2023/06/11 03:21:33;;;;;;;2.67;2.05;;;;;;;16.24;33.12;101081.53;5054555;28;20427;-62
2023/06/11 03:23:58;;;;;;;5.93;2.28;;;;;;;16.48;32.31;101084.84;5054579;28;20485;-64
2023/06/11 03:26:24;;;;;;;5.28;2.35;;;;;;;16.42;32.20;101088.06;5054130;28;20033;-63
2023/06/11 03:28:50;;;;;;;4.20;2.20;;;;;;;16.31;32.83;101069.19;5036767;28;20423;-63
2023/06/11 03:31:15;;;;;;;4.22;2.10;;;;;;;16.59;32.90;101083.91;5054763;28;20102;-63
2023/06/11 03:33:41;;;;;;;2.97;2.00;;;;;;;16.90;31.75;101069.59;5036316;28;20117;-64
2023/06/11 03:36:06;;;;;;;4.05;2.30;;;;;;;17.31;31.32;101085.88;5054459;28;20064;-63
2023/06/11 03:38:32;;;;;;;3.50;2.28;;;;;;;17.79;30.43;101076.13;5054447;28;20363;-63
2023/06/11 03:40:58;;;;;;;3.20;1.90;;;;;;;18.12;29.13;101090.34;5053810;28;20025;-65
2023/06/11 03:43:23;;;;;;;3.92;2.08;;;;;;;18.15;29.41;101086.47;5054131;28;20091;-64
2023/06/11 03:45:49;;;;;;;4.63;2.10;;;;;;;18.61;28.98;101092.16;5054355;28;20098;-64
2023/06/11 03:48:14;;;;;;;3.90;2.17;;;;;;;19.33;27.71;101092.50;5054259;28;20376;-64
2023/06/11 03:50:40;;;;;;;5.28;2.42;;;;;;;19.89;26.87;101084.31;5053794;28;20025;-65
2023/06/11 03:53:06;;;;;;;8.73;2.00;;;;;;;20.40;26.05;101089.22;5054297;28;20033;-64
2023/06/11 03:55:31;;;;;;;5.30;1.85;;;;;;;20.71;24.76;101094.19;5053360;28;20020;-62
2023/06/11 03:57:57;;;;;;;3.67;1.73;;;;;;;20.40;25.75;101088.38;5053864;28;20056;-64
2023/06/11 04:00:22;;;;;;;2.63;1.70;;;;;;;20.79;25.38;101101.56;5053828;28;20554;-63
2023/06/11 04:02:48;;;;;;;2.97;1.70;;;;;;;21.28;24.39;101084.69;5054134;28;20472;-63
2023/06/11 04:05:13;;;;;;;2.67;1.63;;;;;;;21.76;23.64;101070.56;5053976;28;20071;-63
2023/06/11 04:07:40;;;;;;;2.85;1.83;;;;;;;22.58;22.29;101088.00;5053819;28;20056;-63
2023/06/11 04:10:08;;;;;;;1.95;1.63;;;;;;;23.23;22.28;101080.69;5053729;28;20128;-63
2023/06/11 04:12:34;;;;;;;4.22;1.65;;;;;;;23.97;20.33;101084.91;5053255;28;20048;-65
2023/06/11 04:15:00;;;;;;;2.22;1.50;;;;;;;23.97;20.43;101084.06;5053504;28;20037;-63
2023/06/11 04:17:26;;;;;;;1.58;1.35;;;;;;;23.82;20.47;101086.75;5053778;28;20036;-63
2023/06/11 04:19:51;;;;;;;3.42;1.70;;;;;;;23.84;19.82;101096.47;5053884;28;20036;-63
2023/06/11 04:22:17;;;;;;;4.75;1.40;;;;;;;23.74;20.31;101095.84;5053802;28;20028;-64
2023/06/11 04:24:43;;;;;;;3.75;1.10;;;;;;;24.22;19.73;101084.75;5052856;28;20454;-63
2023/06/11 04:27:11;;;;;;;1.38;1.27;;;;;;;23.84;19.28;101082.78;5053609;28;20433;-63
2023/06/11 04:29:36;;;;;;;4.03;1.40;;;;;;;23.94;19.59;101086.16;5053476;28;20037;-65
2023/06/11 04:32:03;;;;;;;1.17;1.00;;;;;;;24.27;18.33;101087.81;5053236;28;20039;-64
2023/06/11 04:34:29;;;;;;;3.10;1.63;;;;;;;23.26;19.73;101084.97;5052647;28;20445;-64
2023/06/11 04:36:58;;;;;;;3.83;1.70;;;;;;;23.20;20.07;101086.50;5053295;28;20025;-63
2023/06/11 04:39:24;;;;;;;4.93;3.47;;;;;;;23.78;19.56;101094.44;5053286;28;20127;-65
2023/06/11 04:41:51;;;;;;;4.25;2.25;;;;;;;23.80;19.24;101081.44;5053258;28;20029;-62
2023/06/11 04:44:20;;;;;;;3.35;2.40;;;;;;;24.22;19.37;101085.63;5053285;28;20044;-65
2023/06/11 04:46:47;;;;;;;1.80;1.70;;;;;;;25.40;18.64;101051.34;5053287;28;20040;-64
2023/06/11 04:49:20;;;;;;;2.33;1.90;;;;;;;26.72;17.36;101086.84;5053026;28;20029;-62
2023/06/11 04:51:48;;;;;;;4.10;1.75;;;;;;;27.42;16.37;101068.66;5053394;28;20101;-64
2023/06/11 04:54:17;;;;;;;1.70;1.25;;;;;;;27.45;16.33;101087.50;5052309;28;20178;-65
2023/06/11 04:56:43;;;;;;;2.53;1.48;;;;;;;27.79;15.82;101083.00;5053138;28;20033;-64
2023/06/11 04:59:09;;;;;;;3.47;1.40;;;;;;;28.33;15.82;101089.44;5052987;28;20409;-63
2023/06/11 05:01:37;;;;;;;1.20;1.10;;;;;;;29.32;14.97;101083.16;5052794;28;20033;-63
2023/06/11 05:04:02;;;;;;;1.50;1.30;;;;;;;29.04;14.62;101095.34;5052818;28;20056;-63
2023/06/11 05:06:29;;;;;;;1.30;1.20;;;;;;;28.39;14.94;101107.03;5035307;28;20028;-63
2023/06/11 05:08:55;;;;;;;2.92;1.20;;;;;;;28.86;14.07;101098.78;5052836;28;20024;-68
2023/06/11 05:11:21;;;;;;;2.95;1.27;;;;;;;29.23;14.30;101099.09;5052262;28;20381;-64
2023/06/11 05:13:46;;;;;;;2.13;1.17;;;;;;;29.54;13.57;101095.81;5052455;28;20036;-63
2023/06/11 05:16:12;;;;;;;3.97;1.13;;;;;;;30.26;13.00;101087.31;5051952;28;20091;-63
2023/06/11 05:18:38;;;;;;;4.78;1.10;;;;;;;30.36;12.61;101059.19;5052471;28;20087;-64
2023/06/11 05:21:03;;;;;;;1.02;0.88;;;;;;;30.13;12.46;101085.50;5052121;28;20029;-64
2023/06/11 05:23:31;;;;;;;1.33;1.10;;;;;;;30.02;12.73;101089.00;5052475;28;20036;-63
2023/06/11 05:26:11;;;;;;;1.33;1.23;;;;;;;30.82;12.22;101094.94;5052558;28;20037;-64
2023/06/11 05:28:37;;;;;;;1.83;1.10;;;;;;;31.68;11.67;101100.53;5052242;28;20044;-64
2023/06/11 05:31:05;;;;;;;1.33;0.88;;;;;;;31.49;11.23;101108.91;5052254;28;20029;-65
2023/06/11 05:33:30;;;;;;;2.85;1.13;;;;;;;31.85;11.40;101098.00;5051721;28;20027;-64
2023/06/11 05:35:56;;;;;;;1.40;0.90;;;;;;;32.90;10.52;101088.41;5051513;28;20036;-64
2023/06/11 05:38:22;;;;;;;4.78;1.00;;;;;;;33.67;9.97;101091.97;5058266;28;20033;-64
2023/06/11 05:40:48;;;;;;;1.42;1.00;;;;;;;32.88;9.89;101082.28;5053322;28;20399;-65
2023/06/11 05:43:13;;;;;;;2.30;0.90;;;;;;;32.44;10.02;101094.53;5058265;28;20028;-64
2023/06/11 05:45:49;;;;;;;2.80;0.80;;;;;;;32.41;10.20;101097.78;5058083;28;20098;-64
2023/06/11 05:48:16;;;;;;;0.90;0.80;;;;;;;33.43;9.34;101096.78;5038987;28;20123;-64
2023/06/11 05:50:42;;;;;;;2.25;1.00;;;;;;;32.11;9.78;101095.06;5057262;28;20045;-64
2023/06/11 05:53:09;;;;;;;3.25;1.00;;;;;;;31.33;10.51;101093.75;5058856;28;20032;-62
2023/06/11 05:55:35;;;;;;;1.25;0.80;;;;;;;32.48;10.41;101087.41;5058700;28;20032;-63
2023/06/11 05:58:01;;;;;;;1.17;0.85;;;;;;;32.16;9.91;101079.41;5058995;28;20028;-63
2023/06/11 06:00:27;;;;;;;3.10;0.90;;;;;;;33.61;9.51;101082.69;5058766;28;20039;-63
2023/06/11 06:02:52;;;;;;;3.45;1.10;;;;;;;34.68;8.50;101086.78;5059027;28;20029;-64
2023/06/11 06:05:18;;;;;;;1.38;0.80;;;;;;;35.85;7.97;101075.72;5058549;28;20472;-64
2023/06/11 06:07:44;;;;;;;3.50;1.08;;;;;;;36.52;7.26;101083.84;5058895;28;20373;-63
2023/06/11 06:10:10;;;;;;;1.92;1.00;;;;;;;36.03;6.85;101085.66;5057599;28;20076;-65
2023/06/11 06:12:35;;;;;;;2.35;1.10;;;;;;;36.17;7.12;101081.34;5050119;28;20108;-63
2023/06/11 06:15:01;;;;;;;1.17;1.02;;;;;;;36.08;7.52;101065.38;5049056;28;20116;-65
2023/06/11 06:17:26;;;;;;;1.67;0.90;;;;;;;35.95;6.96;101049.91;5048116;28;20078;-63
2023/06/11 06:19:52;;;;;;;2.00;1.05;;;;;;;35.21;7.08;101064.16;5048381;28;20026;-65
2023/06/11 06:22:18;;;;;;;1.40;1.00;;;;;;;35.35;7.48;101062.63;5048425;28;20021;-64
2023/06/11 06:24:44;;;;;;;3.33;1.10;;;;;;;36.52;6.98;101072.69;5047550;28;20021;-63
2023/06/11 06:27:11;;;;;;;6.20;1.40;;;;;;;37.70;6.72;101054.81;5038556;28;20051;-63
2023/06/11 06:29:38;;;;;;;5.45;0.98;;;;;;;38.90;5.88;101082.44;5045919;28;20032;-63
2023/06/11 06:32:07;;;;;;;1.08;1.00;;;;;;;36.93;6.79;101081.31;5038736;28;20051;-63
2023/06/11 06:34:34;;;;;;;1.63;1.17;;;;;;;35.89;6.98;101074.91;5038658;28;20409;-64
2023/06/11 06:37:00;;;;;;;0.90;0.90;;;;;;;34.95;7.15;101055.41;5038590;28;20037;-64
2023/06/11 06:39:26;;;;;;;2.53;0.93;;;;;;;34.72;7.54;101032.31;5050718;28;20021;-63
2023/06/11 06:41:52;;;;;;;1.75;0.80;;;;;;;36.08;6.90;101077.34;5058875;28;20528;-63
2023/06/11 06:44:17;;;;;;;0.95;0.90;;;;;;;35.42;7.23;101053.22;5058263;28;20045;-63
2023/06/11 06:46:43;;;;;;;1.15;0.90;;;;;;;35.35;7.02;101057.06;5038140;28;20033;-64
2023/06/11 06:49:09;;;;;;;1.42;1.10;;;;;;;35.54;7.40;101062.31;5055164;28;20025;-63
2023/06/11 06:51:35;;;;;;;1.20;1.10;;;;;;;36.80;6.72;101043.56;5054630;28;20047;-63
2023/06/11 06:54:01;;;;;;;3.90;1.30;;;;;;;36.85;6.63;101063.13;5054384;28;20461;-64
2023/06/11 06:56:26;;;;;;;0.70;0.70;;;;;;;37.40;6.22;101053.59;5035753;28;20108;-64
2023/06/11 06:58:52;;;;;;;2.63;1.02;;;;;;;38.37;5.93;101077.22;5036887;28;20389;-63
2023/06/11 07:01:18;;;;;;;4.55;1.27;;;;;;;38.55;5.50;101075.78;5054406;28;20076;-64
2023/06/11 07:03:43;;;;;;;7.50;1.50;;;;;;;37.96;6.39;101054.81;5054073;28;20036;-64
2023/06/11 07:06:09;;;;;;;2.85;1.40;;;;;;;38.15;6.28;101061.56;5054462;28;20044;-63
2023/06/11 07:08:34;;;;;;;1.25;1.15;;;;;;;39.08;5.91;101068.13;5054204;28;20083;-64
2023/06/11 07:11:01;;;;;;;1.10;0.88;;;;;;;40.40;5.27;101069.47;5054207;28;20049;-63
2023/06/11 07:13:27;;;;;;;1.30;1.20;;;;;;;39.96;5.03;101062.84;5054250;28;20047;-62
2023/06/11 07:15:52;;;;;;;3.30;1.25;;;;;;;40.82;4.68;101057.84;5053880;28;20060;-63
2023/06/11 07:18:18;;;;;;;1.92;1.20;;;;;;;41.00;4.67;101057.03;5053602;28;20239;-62
2023/06/11 07:20:44;;;;;;;6.18;3.65;;;;;;;41.44;4.94;101071.91;5053932;28;20036;-64
2023/06/11 07:23:10;;;;;;;4.18;1.92;;;;;;;43.26;4.21;101058.25;5053745;28;20029;-63
2023/06/11 07:25:37;;;;;;;3.10;1.38;;;;;;;44.52;3.33;101054.06;5053546;28;20028;-63
2023/06/11 07:28:05;;;;;;;2.03;1.30;;;;;;;45.38;2.94;101065.13;5053541;28;20098;-64
2023/06/11 07:30:32;;;;;;;2.65;1.10;;;;;;;45.70;2.67;101069.44;5053611;28;20029;-64
2023/06/11 07:33:01;;;;;;;6.50;1.20;;;;;;;45.70;2.88;101048.81;5053879;28;20025;-62
2023/06/11 07:35:27;;;;;;;4.45;1.17;;;;;;;44.36;2.65;101065.75;5054197;28;20085;-63
2023/06/11 07:37:53;;;;;;;3.38;1.20;;;;;;;43.24;3.38;101052.09;5053277;28;20032;-63
2023/06/11 07:40:20;;;;;;;1.48;1.00;;;;;;;43.67;3.71;101052.84;5053218;28;20336;-63
2023/06/11 07:42:46;;;;;;;1.23;1.05;;;;;;;44.00;3.35;101061.03;5053717;28;20364;-63
2023/06/11 07:45:12;;;;;;;2.78;1.38;;;;;;;44.62;3.11;101059.44;5053826;28;20037;-63
2023/06/11 07:47:38;;;;;;;1.20;1.10;;;;;;;42.46;3.64;101035.97;5053129;28;20055;-63
2023/06/11 07:50:04;;;;;;;1.10;1.00;;;;;;;40.99;4.00;101060.13;5053313;28;20461;-63
2023/06/11 07:52:30;;;;;;;2.50;1.10;;;;;;;39.78;4.73;101013.88;5053417;28;20040;-66
2023/06/11 07:54:56;;;;;;;2.88;1.40;;;;;;;40.64;4.56;101054.63;5053715;28;20041;-65
2023/06/11 07:57:22;;;;;;;6.75;2.13;;;;;;;42.26;4.21;101042.81;5053530;28;20029;-64
2023/06/11 07:59:47;;;;;;;4.20;1.83;;;;;;;43.21;4.01;101041.47;5033585;28;20339;-63
2023/06/11 08:02:14;;;;;;;6.93;1.48;;;;;;;42.98;3.08;101049.00;5053656;28;20422;-62
2023/06/11 08:04:40;;;;;;;2.00;1.13;;;;;;;40.93;4.13;101062.16;5053907;28;20047;-63
2023/06/11 08:07:06;;;;;;;2.53;1.10;;;;;;;38.13;5.34;101052.63;5053369;28;20060;-63
2023/06/11 08:09:37;;;;;;;3.28;1.17;;;;;;;36.06;6.24;101046.13;5053729;28;20445;-63
2023/06/11 08:12:06;;;;;;;3.92;1.30;;;;;;;34.58;7.55;101023.50;5053239;28;20029;-64
2023/06/11 08:14:33;;;;;;;1.95;1.08;;;;;;;34.66;7.60;101052.00;5053564;28;20025;-63
2023/06/11 08:16:58;;;;;;;2.10;1.10;;;;;;;34.65;7.78;101056.69;5053042;28;20025;-62
2023/06/11 08:19:24;;;;;;;1.58;1.23;;;;;;;34.07;8.21;101035.47;5052535;28;20051;-62
2023/06/11 08:21:49;;;;;;;2.67;0.98;;;;;;;33.68;7.96;101027.03;5053372;28;20035;-62
2023/06/11 08:24:16;;;;;;;1.20;1.10;;;;;;;31.38;9.54;101053.50;5035971;28;20021;-63
2023/06/11 08:26:42;;;;;;;10.95;1.42;;;;;;;28.72;11.68;101040.06;5052493;28;20434;-63
2023/06/11 08:29:08;;;;;;;7.57;1.30;;;;;;;27.06;13.15;101044.00;5033628;28;20037;-64
2023/06/11 08:31:33;;;;;;;4.63;1.23;;;;;;;25.96;13.92;101060.00;5033319;28;20037;-62
2023/06/11 08:33:59;;;;;;;1.10;1.00;;;;;;;24.14;15.82;101043.78;5033414;28;20033;-61
2023/06/11 08:36:26;;;;;;;3.85;1.40;;;;;;;22.80;16.69;101032.69;5049503;28;20413;-62
2023/06/11 08:38:51;;;;;;;2.10;1.10;;;;;;;21.81;17.81;101002.75;5035077;28;20037;-64
2023/06/11 08:41:17;;;;;;;2.63;0.98;;;;;;;21.61;18.19;101043.09;5053250;28;20032;-64
2023/06/11 08:43:43;;;;;;;1.85;1.00;;;;;;;20.88;18.62;100999.94;5034923;28;20492;-63
2023/06/11 08:46:15;;;;;;;2.33;1.10;;;;;;;21.12;18.30;101046.47;5052010;28;20029;-63
2023/06/11 08:48:43;;;;;;;4.15;1.00;;;;;;;20.30;19.74;101025.91;5052918;28;20035;-63
2023/06/11 08:51:12;;;;;;;2.42;1.00;;;;;;;19.99;19.97;101026.31;5035700;28;20029;-63
2023/06/11 08:53:39;;;;;;;1.70;1.17;;;;;;;19.65;20.62;101012.41;5051670;28;20029;-61
2023/06/11 08:56:08;;;;;;;1.58;1.02;;;;;;;19.41;20.83;101013.00;5018763;28;20040;-63
2023/06/11 08:58:35;;;;;;;5.82;1.10;;;;;;;19.28;21.43;101004.38;5052882;28;20484;-64
2023/06/11 09:01:09;;;;;;;5.35;1.10;;;;;;;19.33;21.66;100989.34;5052841;28;20029;-64
2023/06/11 09:03:35;;;;;;;5.47;1.50;;;;;;;19.50;21.69;101003.06;5051204;28;20146;-64
2023/06/11 09:06:01;;;;;;;2.80;1.20;;;;;;;19.54;21.76;100980.03;5052631;28;20027;-64
2023/06/11 09:08:26;;;;;;;6.95;1.38;;;;;;;19.70;21.64;101000.22;5052363;28;20033;-62
2023/06/11 09:10:52;;;;;;;1.77;1.30;;;;;;;19.88;21.37;101002.91;5052854;28;20052;-62
2023/06/11 09:13:19;;;;;;;4.88;1.40;;;;;;;19.70;21.74;101005.63;5051710;28;20112;-64
2023/06/11 09:15:55;;;;;;;3.15;1.20;;;;;;;19.39;21.88;101011.44;5052490;28;20086;-63
2023/06/11 09:18:26;;;;;;;5.40;1.40;;;;;;;19.14;22.80;101005.72;5052579;28;20111;-64
2023/06/11 09:20:57;;;;;;;1.40;1.30;;;;;;;19.37;21.83;101014.28;5052112;28;20036;-63
2023/06/11 09:23:34;;;;;;;2.20;1.10;;;;;;;19.20;22.18;101018.69;5051421;28;20036;-61
2023/06/11 09:26:00;;;;;;;1.75;1.20;;;;;;;19.19;22.17;101012.41;5052327;28;20028;-64
2023/06/11 09:28:29;;;;;;;1.40;1.20;;;;;;;19.27;21.93;101016.22;5052312;28;20037;-63
2023/06/11 09:30:56;;;;;;;5.03;1.17;;;;;;;19.16;22.37;101017.28;5052060;28;20540;-62
2023/06/11 09:33:22;;;;;;;2.42;1.23;;;;;;;19.06;22.67;100982.94;5052218;28;20055;-63
2023/06/11 09:35:54;;;;;;;28.08;2.25;;;;;;;19.35;22.16;100986.44;5034739;28;20060;-63
2023/06/11 09:38:21;;;;;;;13.70;1.77;;;;;;;19.46;22.53;100983.53;5034917;28;20036;-64
2023/06/11 09:40:47;;;;;;;3.42;1.00;;;;;;;19.67;21.55;100989.66;5051782;28;20025;-62
2023/06/11 09:43:13;;;;;;;3.67;1.30;;;;;;;19.38;21.70;100998.88;5051967;28;20364;-64
2023/06/11 09:45:40;;;;;;;1.92;1.00;;;;;;;19.39;21.63;100981.56;5052094;28;20024;-63
2023/06/11 09:48:09;;;;;;;2.10;1.10;;;;;;;19.07;22.20;100990.06;5018695;28;20029;-64
2023/06/11 09:50:36;;;;;;;3.83;1.20;;;;;;;18.82;22.51;100966.31;5052549;28;20397;-62
2023/06/11 09:53:03;;;;;;;3.35;1.35;;;;;;;18.76;23.08;100944.16;5034810;28;20029;-63
2023/06/11 09:55:35;;;;;;;5.15;1.10;;;;;;;19.33;21.81;100972.16;5034716;28;20479;-63
2023/06/11 09:58:02;;;;;;;1.70;1.23;;;;;;;19.26;21.97;100965.66;5052329;28;20039;-62
2023/06/11 10:00:28;;;;;;;5.65;1.17;;;;;;;19.50;22.11;100984.06;5033545;28;20411;-63
2023/06/11 10:02:53;;;;;;;2.28;1.20;;;;;;;19.80;21.92;100962.97;5052151;28;20449;-63
2023/06/11 10:05:20;;;;;;;2.03;1.38;;;;;;;20.03;21.13;100966.06;5052470;28;20021;-63
2023/06/11 10:07:57;;;;;;;6.38;1.45;;;;;;;19.96;21.45;100975.00;5051753;28;20037;-63
2023/06/11 10:10:25;;;;;;;2.25;1.20;;;;;;;19.85;21.23;100966.06;5051969;28;20048;-63
2023/06/11 10:12:54;;;;;;;1.80;1.05;;;;;;;19.44;21.49;100905.91;5052069;28;20184;-63
2023/06/11 10:15:24;;;;;;;2.97;1.10;;;;;;;19.74;21.28;100966.28;5052225;28;20108;-63
2023/06/11 10:17:52;;;;;;;6.05;1.70;;;;;;;19.39;22.26;100959.84;5052094;28;20445;-63
2023/06/11 10:20:31;;;;;;;5.93;1.38;;;;;;;19.44;21.91;100960.22;5050885;28;20445;-62
2023/06/11 10:23:11;;;;;;;2.08;1.20;;;;;;;19.89;21.05;100956.56;5032749;28;20097;-62
2023/06/11 10:25:41;;;;;;;1.77;1.02;;;;;;;19.91;21.10;100968.16;5036325;28;20339;-66
2023/06/11 10:28:08;;;;;;;3.58;1.00;;;;;;;19.94;20.89;100958.84;5036111;28;20029;-62
2023/06/11 10:30:34;;;;;;;1.80;1.30;;;;;;;19.80;21.43;100958.38;5036060;28;20116;-63
2023/06/11 10:33:00;;;;;;;4.15;1.15;;;;;;;19.54;21.94;100957.44;5035914;28;20352;-63
2023/06/11 10:35:29;;;;;;;2.17;1.10;;;;;;;19.43;21.95;100951.25;5035931;28;20087;-63
2023/06/11 10:38:03;;;;;;;9.48;1.30;;;;;;;19.34;22.76;100955.75;5037307;28;20075;-63
2023/06/11 10:40:36;;;;;;;1.88;1.30;;;;;;;19.54;22.13;100942.03;5055482;28;20044;-62
2023/06/11 10:43:11;;;;;;;2.08;1.20;;;;;;;19.72;22.12;100931.13;5055359;28;20043;-64
2023/06/11 10:45:38;;;;;;;2.70;1.08;;;;;;;19.62;22.16;100879.59;5035961;28;20125;-62
2023/06/11 10:48:04;;;;;;;7.10;1.40;;;;;;;20.23;21.62;100939.50;5035198;28;20116;-62
2023/06/11 10:50:31;;;;;;;13.38;1.90;;;;;;;20.23;21.73;100935.94;5037376;28;20065;-64
2023/06/11 10:53:02;;;;;;;10.27;1.70;;;;;;;20.18;21.75;100916.56;5054928;28;20068;-63
2023/06/11 10:55:29;;;;;;;21.58;2.03;;;;;;;20.47;21.72;100931.66;5055055;28;20059;-63
2023/06/11 10:57:57;;;;;;;5.18;1.10;;;;;;;20.61;20.58;100927.47;5054342;28;20040;-63
2023/06/11 11:00:23;;;;;;;3.40;1.13;;;;;;;20.47;20.74;100935.22;5054757;28;20037;-62
2023/06/11 11:02:50;;;;;;;1.67;1.00;;;;;;;19.92;21.15;100920.13;5054900;28;20453;-63
2023/06/11 11:05:16;;;;;;;2.17;1.00;;;;;;;19.78;21.28;100926.94;5037425;28;20035;-63
2023/06/11 11:07:44;;;;;;;3.95;1.10;;;;;;;19.64;21.40;100910.19;5054032;28;20052;-63
2023/06/11 11:10:11;;;;;;;3.03;1.30;;;;;;;19.59;21.66;100945.13;5054597;28;20051;-64
2023/06/11 11:12:42;;;;;;;5.68;1.70;;;;;;;19.30;22.40;100935.34;5054653;28;20044;-63
2023/06/11 11:15:11;;;;;;;1.88;1.02;;;;;;;19.01;23.01;100930.94;5054522;28;20045;-63
2023/06/11 11:17:42;;;;;;;2.50;1.10;;;;;;;19.07;23.17;100932.19;5054737;28;20111;-62
2023/06/11 11:20:13;;;;;;;3.30;1.30;;;;;;;19.13;23.02;100860.16;5037507;28;20037;-62
2023/06/11 11:22:39;;;;;;;3.13;1.30;;;;;;;19.22;22.57;100878.22;5037601;28;20028;-62
2023/06/11 11:25:07;;;;;;;4.25;1.60;;;;;;;19.68;22.15;100916.16;5054568;28;20033;-64